Time;durP1;ratioP1;P1;durP2;ratioP2;P2;SDS_P1;SDS_P2;PMS_P1;PMS_P2;Temp;Humidity;BMP_temperature;BMP_pressure;BME280_temperature;BME280_humidity;BME280_pressure;Samples;Min_cycle;Max_cycle;Signal;HPM_P1;HPM_P2
2021/05/04 00:01:25;;;;;;;3.95;2.88;;;8.20;56.60;;;;;;5134777;27;20023;-73
2021/05/04 00:03:51;;;;;;;5.22;2.70;;;8.20;56.70;;;;;;5153716;27;20041;-73
2021/05/04 00:06:17;;;;;;;3.80;2.60;;;8.20;56.80;;;;;;5137265;27;20027;-73
2021/05/04 00:08:42;;;;;;;3.00;2.63;;;8.10;56.80;;;;;;5136813;27;20052;-73
2021/05/04 00:11:08;;;;;;;4.63;2.33;;;8.20;56.80;;;;;;5155451;27;20075;-74
2021/05/04 00:13:34;;;;;;;3.15;2.63;;;8.10;56.80;;;;;;5133086;27;20434;-73
2021/05/04 00:16:00;;;;;;;3.67;2.63;;;8.10;56.70;;;;;;5144973;27;20034;-73
2021/05/04 00:18:25;;;;;;;3.22;2.88;;;8.10;56.80;;;;;;5155624;27;20019;-73
2021/05/04 00:20:51;;;;;;;2.90;2.45;;;8.10;56.60;;;;;;5136761;27;20031;-73
2021/05/04 00:23:17;;;;;;;3.53;2.60;;;8.20;56.70;;;;;;5155234;27;20027;-73
2021/05/04 00:25:43;;;;;;;7.15;2.97;;;8.10;56.60;;;;;;5155510;27;20464;-74
2021/05/04 00:28:08;;;;;;;2.40;2.20;;;8.10;56.50;;;;;;5154996;27;20023;-73
2021/05/04 00:30:34;;;;;;;5.75;2.40;;;8.10;56.60;;;;;;5154667;27;20030;-73
2021/05/04 00:33:01;;;;;;;2.53;2.22;;;8.10;56.60;;;;;;5155686;27;20030;-73
2021/05/04 00:35:26;;;;;;;4.35;2.40;;;8.10;56.60;;;;;;5155324;27;20031;-73
2021/05/04 00:37:53;;;;;;;4.53;2.50;;;8.10;56.70;;;;;;5154750;27;20046;-73
2021/05/04 00:40:18;;;;;;;3.03;2.40;;;8.10;56.80;;;;;;5154207;27;20375;-74
2021/05/04 00:42:44;;;;;;;3.70;2.50;;;8.10;56.80;;;;;;5155121;27;20042;-74
2021/05/04 00:45:11;;;;;;;2.80;2.60;;;8.00;56.80;;;;;;5155748;27;20117;-73
2021/05/04 00:47:36;;;;;;;3.25;2.50;;;8.00;56.90;;;;;;5154473;27;20497;-74
2021/05/04 00:50:03;;;;;;;5.05;2.90;;;8.00;57.00;;;;;;5136357;27;20034;-73
2021/05/04 00:52:29;;;;;;;5.03;3.00;;;8.00;57.10;;;;;;5154956;27;20054;-74
2021/05/04 00:54:57;;;;;;;7.00;2.90;;;7.90;57.10;;;;;;5154817;27;20069;-74
2021/05/04 00:57:23;;;;;;;4.32;2.65;;;7.90;57.30;;;;;;5155025;27;20031;-74
2021/05/04 00:59:50;;;;;;;2.78;2.58;;;7.90;57.40;;;;;;5154530;27;20026;-74
2021/05/04 01:02:17;;;;;;;3.92;2.60;;;7.90;57.40;;;;;;5154536;27;20510;-73
2021/05/04 01:04:44;;;;;;;3.67;2.78;;;7.80;57.50;;;;;;5135927;27;20033;-73
2021/05/04 01:07:10;;;;;;;2.95;2.40;;;7.80;57.60;;;;;;5154721;27;20019;-73
2021/05/04 01:09:36;;;;;;;2.85;2.47;;;7.80;57.70;;;;;;5154712;27;20105;-77
2021/05/04 01:12:02;;;;;;;3.10;2.60;;;7.80;57.70;;;;;;5136400;27;20448;-74
2021/05/04 01:14:27;;;;;;;4.13;2.95;;;7.80;57.70;;;;;;5154666;27;20159;-74
2021/05/04 01:16:56;;;;;;;3.90;2.67;;;7.80;57.80;;;;;;5154601;27;20113;-73
2021/05/04 01:19:23;;;;;;;4.40;2.72;;;7.80;57.90;;;;;;5154749;27;20030;-73
2021/05/04 01:21:49;;;;;;;4.00;2.55;;;7.70;58.00;;;;;;5135905;27;20036;-74
2021/05/04 01:24:16;;;;;;;5.85;2.97;;;7.70;58.10;;;;;;5135784;27;20030;-73
2021/05/04 01:26:43;;;;;;;4.85;2.92;;;7.70;58.20;;;;;;5135845;27;20380;-73
2021/05/04 01:29:09;;;;;;;7.00;2.85;;;7.70;58.30;;;;;;5154685;27;20126;-73
2021/05/04 01:31:35;;;;;;;3.05;2.58;;;7.60;58.30;;;;;;5154486;27;20022;-73
2021/05/04 01:34:00;;;;;;;3.45;2.75;;;7.60;58.40;;;;;;5135784;27;20134;-75
2021/05/04 01:36:26;;;;;;;4.18;2.80;;;7.60;58.50;;;;;;5154191;27;20476;-73
2021/05/04 01:38:52;;;;;;;3.95;2.80;;;7.50;58.60;;;;;;5135782;27;20038;-73
2021/05/04 01:41:18;;;;;;;4.68;2.90;;;7.50;58.60;;;;;;5154495;27;20434;-73
2021/05/04 01:43:43;;;;;;;6.38;2.88;;;7.50;58.70;;;;;;5154313;27;20022;-73
2021/05/04 01:46:09;;;;;;;2.88;2.50;;;7.50;58.80;;;;;;5154162;27;20035;-73
2021/05/04 01:48:35;;;;;;;4.63;2.95;;;7.50;58.90;;;;;;5154339;27;20027;-74
2021/05/04 01:51:01;;;;;;;4.72;2.90;;;7.40;59.00;;;;;;5154196;27;20464;-73
2021/05/04 01:53:27;;;;;;;4.20;2.70;;;7.40;59.10;;;;;;5156507;27;20066;-73
2021/05/04 01:55:52;;;;;;;3.88;2.72;;;7.40;59.20;;;;;;5158119;27;20038;-73
2021/05/04 01:58:18;;;;;;;4.78;3.45;;;7.30;59.20;;;;;;5158315;27;20447;-73
2021/05/04 02:00:44;;;;;;;6.80;2.90;;;7.30;59.30;;;;;;5157833;27;20019;-74
2021/05/04 02:03:10;;;;;;;5.18;3.33;;;7.30;59.40;;;;;;5158068;27;20035;-74
2021/05/04 02:05:36;;;;;;;4.57;2.85;;;7.30;59.50;;;;;;5158457;27;20456;-73
2021/05/04 02:08:02;;;;;;;5.78;2.80;;;7.30;59.60;;;;;;5157684;27;20030;-73
2021/05/04 02:10:28;;;;;;;3.10;2.80;;;7.20;59.70;;;;;;5158356;27;20102;-73
2021/05/04 02:12:53;;;;;;;4.82;3.03;;;7.20;59.80;;;;;;5157473;27;20058;-74
2021/05/04 02:15:19;;;;;;;5.18;3.47;;;7.20;59.90;;;;;;5157807;27;20053;-73
2021/05/04 02:17:45;;;;;;;4.35;3.10;;;7.20;60.00;;;;;;5139183;27;20070;-74
2021/05/04 02:20:11;;;;;;;3.97;2.85;;;7.20;60.10;;;;;;5157883;27;20026;-74
2021/05/04 02:22:37;;;;;;;6.35;4.50;;;7.20;60.20;;;;;;5157471;27;20040;-74
2021/05/04 02:25:04;;;;;;;18.25;12.48;;;7.10;60.30;;;;;;5157727;27;20034;-74
2021/05/04 02:27:30;;;;;;;16.38;13.65;;;7.10;60.40;;;;;;5157707;27;20076;-74
2021/05/04 02:29:56;;;;;;;8.88;6.60;;;7.10;60.60;;;;;;5139115;27;20023;-73
2021/05/04 02:32:21;;;;;;;9.43;6.25;;;7.00;60.80;;;;;;5157423;27;20110;-73
2021/05/04 02:34:47;;;;;;;7.43;4.80;;;7.00;61.00;;;;;;5156721;27;20027;-73
2021/05/04 02:37:13;;;;;;;6.30;4.75;;;6.90;61.20;;;;;;5157182;27;20118;-73
2021/05/04 02:39:39;;;;;;;5.28;4.00;;;6.80;61.30;;;;;;5157107;27;20487;-73
2021/05/04 02:42:05;;;;;;;6.65;3.70;;;6.80;61.50;;;;;;5157704;27;20440;-74
2021/05/04 02:44:30;;;;;;;4.97;3.60;;;6.80;61.70;;;;;;5146130;27;20463;-74
2021/05/04 02:46:56;;;;;;;5.40;3.67;;;6.70;61.90;;;;;;5157252;27;20057;-74
2021/05/04 02:49:22;;;;;;;5.63;3.75;;;6.70;62.10;;;;;;5157270;27;20023;-74
2021/05/04 02:51:47;;;;;;;6.88;3.63;;;6.70;62.20;;;;;;5156258;27;20054;-74
2021/05/04 02:54:13;;;;;;;7.82;4.35;;;6.70;62.40;;;;;;5156854;27;20055;-74
2021/05/04 02:56:39;;;;;;;6.47;3.50;;;6.70;62.60;;;;;;5156217;27;20034;-73
2021/05/04 02:59:05;;;;;;;6.15;4.07;;;6.70;62.70;;;;;;5138136;27;20019;-74
2021/05/04 03:01:30;;;;;;;5.35;3.78;;;6.70;62.80;;;;;;5156660;27;20087;-73
2021/05/04 03:03:56;;;;;;;5.38;4.03;;;6.70;62.90;;;;;;5156480;27;20027;-73
2021/05/04 03:06:22;;;;;;;5.60;3.75;;;6.70;62.90;;;;;;5157395;27;20019;-74
2021/05/04 03:08:48;;;;;;;5.82;3.90;;;6.80;63.00;;;;;;5156936;27;20089;-73
2021/05/04 03:11:13;;;;;;;7.63;3.97;;;6.80;63.00;;;;;;5157216;27;20026;-73
2021/05/04 03:13:39;;;;;;;5.32;3.83;;;6.90;63.00;;;;;;5156981;27;20424;-73
2021/05/04 03:16:06;;;;;;;4.25;3.42;;;6.90;63.00;;;;;;5156937;27;20376;-74
2021/05/04 03:18:32;;;;;;;5.45;3.45;;;6.90;63.00;;;;;;5134183;27;20047;-74
2021/05/04 03:20:57;;;;;;;4.78;3.88;;;6.90;62.90;;;;;;5136242;27;20404;-74
2021/05/04 03:23:23;;;;;;;4.93;3.55;;;7.00;63.00;;;;;;5136114;27;20031;-74
2021/05/04 03:25:50;;;;;;;5.32;4.07;;;7.00;63.00;;;;;;5135556;27;20023;-73
2021/05/04 03:28:16;;;;;;;6.13;3.88;;;7.10;63.10;;;;;;5135872;27;20034;-74
2021/05/04 03:30:42;;;;;;;8.10;3.60;;;7.10;63.10;;;;;;5136000;27;20469;-74
2021/05/04 03:33:08;;;;;;;4.22;3.55;;;7.20;63.30;;;;;;5135680;27;20023;-74
2021/05/04 03:41:21;;;;;;;4.90;3.80;;;7.20;63.20;;;;;;5156248;27;20518;-74
2021/05/04 03:43:46;;;;;;;5.10;3.70;;;7.30;63.00;;;;;;5156639;27;20027;-74
2021/05/04 03:46:13;;;;;;;4.63;3.65;;;7.40;63.10;;;;;;5137789;27;20099;-74
2021/05/04 03:48:38;;;;;;;4.97;4.18;;;7.40;63.00;;;;;;5156268;27;20388;-74
2021/05/04 03:51:06;;;;;;;4.57;3.53;;;7.50;63.00;;;;;;5156054;27;20023;-74
2021/05/04 03:53:32;;;;;;;4.80;3.45;;;7.60;63.00;;;;;;5155980;27;20018;-74
2021/05/04 03:55:58;;;;;;;6.60;3.95;;;7.70;62.80;;;;;;5155941;27;20475;-74
2021/05/04 03:58:23;;;;;;;7.40;3.50;;;7.70;62.70;;;;;;5155928;27;20405;-74
2021/05/04 04:00:49;;;;;;;4.93;3.50;;;7.80;62.60;;;;;;5137057;27;20106;-74
2021/05/04 04:03:15;;;;;;;5.30;3.67;;;7.80;62.50;;;;;;5156016;27;20022;-74
2021/05/04 04:05:41;;;;;;;5.15;3.55;;;7.90;62.50;;;;;;5155589;27;20449;-74
2021/05/04 04:08:07;;;;;;;6.90;3.50;;;8.00;62.40;;;;;;5155333;27;20106;-74
2021/05/04 04:10:33;;;;;;;6.25;3.58;;;8.10;62.40;;;;;;5155348;27;20026;-75
2021/05/04 04:12:58;;;;;;;5.80;3.80;;;8.10;62.20;;;;;;5155436;27;20098;-74
2021/05/04 04:15:24;;;;;;;4.90;3.90;;;8.20;62.10;;;;;;5155005;27;20445;-74
2021/05/04 04:17:50;;;;;;;4.07;3.25;;;8.30;61.90;;;;;;5154830;27;20480;-74
2021/05/04 04:20:15;;;;;;;4.13;3.35;;;8.40;61.70;;;;;;5155382;27;20456;-75
2021/05/04 04:22:41;;;;;;;4.22;3.17;;;8.40;61.60;;;;;;5137090;27;20113;-74
2021/05/04 04:25:08;;;;;;;3.92;3.45;;;8.50;61.60;;;;;;5155487;27;20022;-74
2021/05/04 04:27:34;;;;;;;6.18;3.72;;;8.50;61.40;;;;;;5155177;27;20087;-74
2021/05/04 04:30:00;;;;;;;5.07;3.83;;;8.60;61.90;;;;;;5154857;27;20038;-74
2021/05/04 04:32:25;;;;;;;4.15;3.20;;;8.70;61.10;;;;;;5155308;27;20022;-74
2021/05/04 04:34:53;;;;;;;5.53;3.70;;;8.80;60.90;;;;;;5154291;27;20050;-74
2021/05/04 04:37:19;;;;;;;4.55;3.47;;;8.80;60.70;;;;;;5152711;27;20426;-74
2021/05/04 04:39:45;;;;;;;5.22;3.97;;;8.90;60.50;;;;;;5144983;27;20453;-74
2021/05/04 04:42:11;;;;;;;5.30;3.67;;;8.90;60.40;;;;;;5145041;27;20051;-74
2021/05/04 04:44:37;;;;;;;4.95;3.72;;;9.00;60.30;;;;;;5148799;27;20027;-74
2021/05/04 04:47:06;;;;;;;9.02;4.28;;;9.00;60.10;;;;;;5149857;27;20030;-75
2021/05/04 04:49:31;;;;;;;6.40;3.78;;;9.10;60.20;;;;;;5145205;27;20015;-75
2021/05/04 04:51:57;;;;;;;5.68;3.63;;;9.10;60.10;;;;;;5145705;27;20027;-74
2021/05/04 04:54:23;;;;;;;5.32;3.63;;;9.20;60.00;;;;;;5145050;27;20038;-75
2021/05/04 04:56:49;;;;;;;4.55;3.80;;;9.30;59.80;;;;;;5146421;27;20038;-75
2021/05/04 04:59:14;;;;;;;7.43;4.20;;;9.30;59.70;;;;;;5134017;27;20034;-75
2021/05/04 05:01:40;;;;;;;6.20;4.03;;;9.40;59.60;;;;;;5130592;27;20058;-75
2021/05/04 05:04:07;;;;;;;4.90;3.80;;;9.50;59.50;;;;;;5154901;27;20027;-75
2021/05/04 05:06:34;;;;;;;5.53;3.97;;;9.50;59.30;;;;;;5154466;27;20050;-75
2021/05/04 05:09:07;;;;;;;4.68;3.65;;;9.50;59.10;;;;;;5154793;27;20034;-75
2021/05/04 05:11:32;;;;;;;5.63;4.05;;;9.50;59.20;;;;;;5132091;27;20035;-75
2021/05/04 05:13:58;;;;;;;5.43;3.95;;;9.60;59.30;;;;;;5137235;27;20042;-75
2021/05/04 05:16:24;;;;;;;5.47;4.03;;;9.60;59.30;;;;;;5154406;27;20110;-75
2021/05/04 05:18:52;;;;;;;5.57;4.20;;;9.70;59.20;;;;;;5154588;27;20034;-75
2021/05/04 05:21:18;;;;;;;6.93;4.10;;;9.80;59.20;;;;;;5154278;27;20452;-75
2021/05/04 05:23:44;;;;;;;6.03;4.10;;;9.90;59.10;;;;;;5153453;27;20425;-75
2021/05/04 05:26:10;;;;;;;5.78;3.90;;;10.00;58.90;;;;;;5155524;27;20031;-73
2021/05/04 05:28:38;;;;;;;5.57;4.07;;;10.00;58.60;;;;;;5161325;27;20033;-74
2021/05/04 05:31:04;;;;;;;5.60;4.30;;;10.10;58.40;;;;;;5160811;27;20082;-74
2021/05/04 05:33:29;;;;;;;7.10;4.13;;;10.20;58.30;;;;;;5150521;27;20035;-75
2021/05/04 05:35:55;;;;;;;6.25;4.18;;;10.20;58.20;;;;;;5150839;27;20381;-75
2021/05/04 05:38:21;;;;;;;5.03;4.10;;;10.30;58.30;;;;;;5152518;27;20102;-75
2021/05/04 05:40:47;;;;;;;6.60;4.38;;;10.40;58.30;;;;;;5155072;27;20023;-75
2021/05/04 05:43:12;;;;;;;9.93;4.35;;;10.40;58.00;;;;;;5161442;27;20126;-75
2021/05/04 05:45:38;;;;;;;6.53;4.20;;;10.50;58.00;;;;;;5161147;27;20058;-75
2021/05/04 05:48:04;;;;;;;6.93;3.83;;;10.60;57.90;;;;;;5156500;27;20027;-76
2021/05/04 05:50:30;;;;;;;4.55;4.07;;;10.70;57.60;;;;;;5129971;27;20049;-74
2021/05/04 05:52:55;;;;;;;6.53;4.22;;;10.70;57.40;;;;;;5158672;27;20023;-74
2021/05/04 05:55:21;;;;;;;6.85;4.35;;;10.80;57.40;;;;;;5158639;27;20035;-74
2021/05/04 05:57:47;;;;;;;5.55;4.18;;;10.80;57.30;;;;;;5161087;27;20095;-74
2021/05/04 06:00:16;;;;;;;5.70;4.22;;;10.90;57.00;;;;;;5131791;27;20426;-74
2021/05/04 06:02:42;;;;;;;7.70;4.57;;;11.00;56.70;;;;;;5126943;27;20027;-77
2021/05/04 06:05:09;;;;;;;5.07;4.05;;;11.10;56.50;;;;;;5153455;27;20045;-75
2021/05/04 06:07:34;;;;;;;5.18;4.40;;;11.20;56.30;;;;;;5135701;27;20119;-77
2021/05/04 06:10:00;;;;;;;9.27;4.15;;;11.30;56.20;;;;;;5156241;27;20054;-74
2021/05/04 06:12:26;;;;;;;6.75;4.50;;;11.40;55.90;;;;;;5159633;27;20433;-75
2021/05/04 06:14:51;;;;;;;7.07;4.80;;;11.40;55.60;;;;;;5159708;27;20448;-74
2021/05/04 06:17:17;;;;;;;4.25;3.85;;;11.50;55.40;;;;;;5137933;27;20030;-73
2021/05/04 06:19:43;;;;;;;6.32;3.90;;;11.50;54.90;;;;;;5151336;27;20072;-75
2021/05/04 06:22:08;;;;;;;5.82;4.57;;;11.60;54.90;;;;;;5132601;27;20034;-74
2021/05/04 06:24:34;;;;;;;6.82;4.38;;;11.60;54.90;;;;;;5159466;27;20029;-76
2021/05/04 06:27:00;;;;;;;6.07;4.35;;;11.80;54.80;;;;;;5156493;27;20022;-74
2021/05/04 06:29:26;;;;;;;4.88;3.95;;;11.90;54.60;;;;;;5158976;27;20460;-74
2021/05/04 06:31:58;;;;;;;5.90;3.97;;;12.00;54.10;;;;;;5157285;27;20019;-74
2021/05/04 06:34:25;;;;;;;5.25;4.15;;;12.10;54.00;;;;;;5158143;27;20018;-74
2021/05/04 06:36:50;;;;;;;6.05;4.60;;;12.30;53.90;;;;;;5141076;27;20119;-74
2021/05/04 06:39:16;;;;;;;4.78;3.90;;;12.40;53.70;;;;;;5150887;27;20097;-74
2021/05/04 06:41:42;;;;;;;6.63;4.32;;;12.50;53.30;;;;;;5146944;27;20039;-75
2021/05/04 06:44:07;;;;;;;6.97;4.25;;;12.50;52.90;;;;;;5145164;27;20042;-75
2021/05/04 06:46:33;;;;;;;8.63;4.15;;;12.50;52.80;;;;;;5151149;27;20105;-74
2021/05/04 06:49:00;;;;;;;5.35;4.28;;;12.50;52.90;;;;;;5152672;27;20102;-74
2021/05/04 06:51:26;;;;;;;6.40;4.22;;;12.60;52.40;;;;;;5130452;27;20123;-73
2021/05/04 06:53:52;;;;;;;5.65;4.43;;;12.60;52.20;;;;;;5155388;27;20060;-75
2021/05/04 06:56:17;;;;;;;4.70;3.72;;;12.60;52.20;;;;;;5146907;27;20031;-73
2021/05/04 06:58:43;;;;;;;6.70;4.47;;;12.70;51.90;;;;;;5150194;27;20030;-76
2021/05/04 07:01:09;;;;;;;4.35;3.95;;;12.70;51.60;;;;;;5152881;27;20031;-74
2021/05/04 07:03:36;;;;;;;3.88;3.30;;;12.90;51.50;;;;;;5154065;27;20075;-73
2021/05/04 07:06:02;;;;;;;5.97;4.13;;;13.00;50.90;;;;;;5148958;27;20046;-73
2021/05/04 07:08:27;;;;;;;4.43;3.75;;;13.10;50.60;;;;;;5139979;27;20552;-74
2021/05/04 07:10:53;;;;;;;4.90;3.88;;;13.30;50.20;;;;;;5135918;27;20030;-76
2021/05/04 07:13:19;;;;;;;5.32;4.18;;;13.40;49.70;;;;;;5138537;27;20034;-75
2021/05/04 07:15:46;;;;;;;4.50;3.50;;;13.60;49.50;;;;;;5151010;27;20031;-75
2021/05/04 07:18:12;;;;;;;6.10;3.58;;;13.70;49.40;;;;;;5150265;27;20023;-75
2021/05/04 07:20:39;;;;;;;3.50;3.20;;;13.80;49.00;;;;;;5131980;27;20115;-75
2021/05/04 07:23:09;;;;;;;6.85;4.18;;;13.90;47.80;;;;;;5120307;27;20019;-74
2021/05/04 07:25:35;;;;;;;4.22;3.67;;;14.00;47.80;;;;;;5152333;27;20046;-75
2021/05/04 07:28:01;;;;;;;4.18;3.70;;;14.10;47.80;;;;;;5155102;27;20472;-74
2021/05/04 07:30:29;;;;;;;4.15;3.30;;;14.20;47.60;;;;;;5152583;27;20350;-74
2021/05/04 07:32:55;;;;;;;4.57;3.78;;;14.20;46.90;;;;;;5153611;27;20082;-74
2021/05/04 07:35:21;;;;;;;6.30;3.63;;;14.20;46.90;;;;;;5152873;27;20023;-75
2021/05/04 07:37:47;;;;;;;7.60;4.00;;;14.30;46.80;;;;;;5155416;27;20034;-76
2021/05/04 07:40:13;;;;;;;5.05;4.30;;;14.30;46.90;;;;;;5154559;27;20031;-75
2021/05/04 07:42:39;;;;;;;6.25;4.22;;;14.30;47.00;;;;;;5154983;27;20495;-74
2021/05/04 07:45:05;;;;;;;4.35;3.63;;;14.20;47.20;;;;;;5152198;27;20027;-75
2021/05/04 07:47:31;;;;;;;3.72;3.35;;;14.20;47.30;;;;;;5152302;27;20023;-75
2021/05/04 07:49:57;;;;;;;3.58;3.28;;;14.40;47.30;;;;;;5146319;27;20053;-77
2021/05/04 07:52:23;;;;;;;5.55;4.00;;;14.60;46.90;;;;;;5154970;27;20380;-75
2021/05/04 07:54:51;;;;;;;4.03;3.00;;;14.60;46.50;;;;;;5136449;27;20030;-74
2021/05/04 07:57:20;;;;;;;6.05;3.80;;;14.60;46.30;;;;;;5150467;27;20034;-75
2021/05/04 07:59:46;;;;;;;5.35;3.45;;;14.60;46.30;;;;;;5153934;27;20019;-76
2021/05/04 08:02:12;;;;;;;3.78;3.20;;;14.80;46.10;;;;;;5154764;27;20042;-76
2021/05/04 08:04:38;;;;;;;6.10;3.50;;;14.90;45.40;;;;;;5151252;27;20022;-74
2021/05/04 08:07:08;;;;;;;4.63;3.20;;;14.80;44.60;;;;;;5126805;27;20131;-74
2021/05/04 08:09:37;;;;;;;4.93;3.45;;;14.90;44.60;;;;;;5153795;27;20023;-72
2021/05/04 08:15:25;;;;;;;5.22;3.22;;;15.00;43.20;;;;;;5152941;27;20050;-74
2021/05/04 08:17:56;;;;;;;3.75;3.20;;;14.90;43.50;;;;;;5154843;27;20031;-75
2021/05/04 08:20:25;;;;;;;5.70;3.28;;;14.80;43.50;;;;;;5144105;27;20456;-74
2021/05/04 08:22:52;;;;;;;5.03;3.45;;;14.80;43.20;;;;;;5140361;27;20050;-74
2021/05/04 08:25:19;;;;;;;4.88;3.05;;;14.90;43.00;;;;;;5138516;27;20026;-75
2021/05/04 08:27:45;;;;;;;4.25;2.80;;;14.80;43.00;;;;;;5140226;27;20102;-75
2021/05/04 08:30:11;;;;;;;8.68;2.75;;;14.60;43.00;;;;;;5154459;27;20480;-75
2021/05/04 08:32:37;;;;;;;3.22;2.90;;;14.40;43.00;;;;;;5143346;27;20102;-76
2021/05/04 08:35:03;;;;;;;3.75;3.28;;;14.20;45.30;;;;;;5117764;27;20131;-76
2021/05/04 08:37:30;;;;;;;4.72;3.60;;;13.90;48.80;;;;;;5136837;27;20102;-75
2021/05/04 08:39:56;;;;;;;5.20;3.38;;;13.60;49.30;;;;;;5138477;27;20430;-76
2021/05/04 08:42:21;;;;;;;3.35;3.05;;;13.40;50.10;;;;;;5117934;27;20043;-75
2021/05/04 08:44:52;;;;;;;3.72;3.25;;;13.40;50.20;;;;;;5136574;27;20383;-75
2021/05/04 08:47:21;;;;;;;5.25;3.35;;;13.30;49.80;;;;;;5148425;27;20037;-75
2021/05/04 08:49:48;;;;;;;5.38;3.40;;;13.30;50.00;;;;;;5147795;27;20523;-76
2021/05/04 08:52:16;;;;;;;7.18;3.53;;;13.20;50.50;;;;;;5148745;27;20456;-77
2021/05/04 08:54:41;;;;;;;3.85;3.15;;;13.30;51.00;;;;;;5117624;27;20400;-75
2021/05/04 08:57:07;;;;;;;3.40;3.08;;;13.60;50.40;;;;;;5136854;27;20019;-75
2021/05/04 08:59:33;;;;;;;4.38;3.40;;;13.90;49.70;;;;;;5137215;27;20365;-78
2021/05/04 09:02:00;;;;;;;4.28;3.63;;;14.10;49.20;;;;;;5135930;27;20532;-78
2021/05/04 09:04:39;;;;;;;4.38;3.40;;;14.30;48.80;;;;;;5139606;27;20027;-76
2021/05/04 09:07:25;;;;;;;3.47;3.00;;;14.40;48.00;;;;;;5136356;27;20023;-77
2021/05/04 09:10:21;;;;;;;3.97;3.10;;;14.50;47.60;;;;;;5136178;27;20022;-75
2021/05/04 09:12:57;;;;;;;6.97;3.50;;;14.50;47.20;;;;;;5136252;27;20023;-74
2021/05/04 09:15:50;;;;;;;3.28;2.97;;;14.50;47.50;;;;;;5146899;27;20031;-78
2021/05/04 09:21:09;;;;;;;4.57;2.97;;;14.80;47.10;;;;;;5147809;27;20483;-75
2021/05/04 09:23:37;;;;;;;3.35;3.03;;;15.40;47.30;;;;;;5147278;27;20108;-75
2021/05/04 09:26:03;;;;;;;4.82;3.00;;;16.00;46.20;;;;;;5150376;27;20121;-77
2021/05/04 09:28:29;;;;;;;3.22;2.78;;;16.20;45.00;;;;;;5135346;27;20144;-75
2021/05/04 09:30:57;;;;;;;2.75;2.42;;;16.20;43.90;;;;;;5153855;27;20341;-76
2021/05/04 09:33:23;;;;;;;3.83;2.78;;;15.90;42.90;;;;;;5150934;27;20022;-76
2021/05/04 09:35:49;;;;;;;3.13;2.60;;;15.60;42.40;;;;;;5147515;27;20029;-79
2021/05/04 09:38:17;;;;;;;6.30;2.58;;;15.40;42.50;;;;;;5150769;27;20065;-74
2021/05/04 09:40:45;;;;;;;3.80;3.08;;;15.20;43.10;;;;;;5145470;27;20099;-74
2021/05/04 09:43:23;;;;;;;4.85;2.97;;;15.10;43.40;;;;;;5142900;27;20050;-76
2021/05/04 09:45:53;;;;;;;8.52;3.20;;;15.20;43.30;;;;;;5125051;28;20027;-76
2021/05/04 09:48:29;;;;;;;2.72;2.53;;;15.50;43.10;;;;;;5128722;28;20495;-74
2021/05/04 09:51:06;;;;;;;2.20;1.92;;;16.00;42.60;;;;;;5126155;27;20349;-77
2021/05/04 09:53:58;;;;;;;2.40;2.20;;;17.00;41.80;;;;;;5130770;28;20023;-76
2021/05/04 09:56:35;;;;;;;3.17;2.53;;;17.40;40.60;;;;;;5128055;27;20477;-77
2021/05/04 09:59:04;;;;;;;2.22;2.05;;;17.40;39.40;;;;;;5127467;27;20031;-78
2021/05/04 10:01:30;;;;;;;2.58;2.30;;;17.30;39.30;;;;;;5128569;27;20138;-76
2021/05/04 10:03:56;;;;;;;3.08;2.35;;;17.00;39.30;;;;;;5132526;27;20076;-76
2021/05/04 10:06:22;;;;;;;3.50;2.30;;;16.60;39.40;;;;;;5129490;27;20020;-77
2021/05/04 10:08:50;;;;;;;3.33;2.35;;;16.20;39.80;;;;;;5131899;27;20020;-76
2021/05/04 10:11:19;;;;;;;3.58;2.88;;;15.80;40.30;;;;;;5132484;27;20114;-76
2021/05/04 10:13:57;;;;;;;3.45;2.53;;;15.50;41.40;;;;;;5131648;27;20011;-79
2021/05/04 10:16:29;;;;;;;2.80;2.60;;;15.20;42.30;;;;;;5132976;27;20484;-76
2021/05/04 10:18:59;;;;;;;3.22;2.60;;;14.90;43.80;;;;;;5135051;27;20019;-77
2021/05/04 10:21:26;;;;;;;3.85;2.47;;;14.90;44.30;;;;;;5132059;27;20027;-75
2021/05/04 10:23:52;;;;;;;3.42;2.58;;;15.50;45.20;;;;;;5133889;27;20476;-75
2021/05/04 10:26:19;;;;;;;2.58;2.28;;;16.90;44.20;;;;;;5135450;27;20061;-76
2021/05/04 10:29:08;;;;;;;3.67;2.50;;;17.90;41.90;;;;;;5133695;27;20019;-76
2021/05/04 10:31:39;;;;;;;2.67;2.38;;;19.20;40.30;;;;;;5131319;27;20029;-75
2021/05/04 10:34:35;;;;;;;2.60;2.40;;;20.70;38.60;;;;;;5130914;27;20365;-75
2021/05/04 10:37:03;;;;;;;3.20;2.60;;;21.80;36.70;;;;;;5123011;27;20380;-75
2021/05/04 10:39:38;;;;;;;3.70;2.30;;;22.90;36.30;;;;;;5121702;27;20024;-77
2021/05/04 10:42:06;;;;;;;3.03;2.45;;;23.70;34.90;;;;;;5136708;27;20146;-74
2021/05/04 10:44:57;;;;;;;2.28;1.95;;;23.80;33.60;;;;;;5152430;27;20472;-76
2021/05/04 10:47:44;;;;;;;4.55;2.20;;;23.00;32.20;;;;;;5133098;27;20034;-76
2021/05/04 10:50:12;;;;;;;3.35;2.55;;;21.50;32.90;;;;;;5153277;27;20083;-77
2021/05/04 10:55:20;;;;;;;3.05;2.13;;;19.90;34.20;;;;;;5153131;27;20399;-76
2021/05/04 10:58:01;;;;;;;2.42;2.22;;;19.20;34.70;;;;;;5151065;27;20019;-76
2021/05/04 11:00:49;;;;;;;2.53;2.30;;;19.30;35.60;;;;;;5153183;27;20376;-75
2021/05/04 11:03:33;;;;;;;2.20;2.00;;;20.00;35.00;;;;;;5153069;27;20079;-79
2021/05/04 11:05:59;;;;;;;4.63;2.17;;;20.10;34.60;;;;;;5153400;27;20023;-76
2021/05/04 11:08:47;;;;;;;2.20;2.00;;;20.00;35.10;;;;;;5150241;27;20027;-77
2021/05/04 11:11:24;;;;;;;2.47;2.05;;;19.50;34.30;;;;;;5151743;27;20099;-76
2021/05/04 11:13:59;;;;;;;2.40;2.13;;;18.90;34.70;;;;;;5153246;27;20031;-81
2021/05/04 11:16:35;;;;;;;3.95;2.13;;;18.60;35.40;;;;;;5152932;27;20030;-77
2021/05/04 11:19:09;;;;;;;3.47;2.80;;;18.20;35.90;;;;;;5151960;27;20019;-79
2021/05/04 11:21:49;;;;;;;3.05;2.65;;;18.00;36.50;;;;;;5146276;27;20042;-79
2021/05/04 11:24:17;;;;;;;2.40;2.20;;;17.80;36.90;;;;;;5144003;27;20369;-78
2021/05/04 11:26:47;;;;;;;4.20;2.67;;;17.70;37.00;;;;;;5138148;27;20015;-78
2021/05/04 11:29:14;;;;;;;3.15;2.75;;;17.70;37.30;;;;;;5155117;27;20472;-77
2021/05/04 11:31:42;;;;;;;2.92;2.47;;;18.40;37.80;;;;;;5154660;27;20414;-77
2021/05/04 11:34:46;;;;;;;2.95;2.75;;;19.80;37.20;;;;;;5151354;27;20034;-79
2021/05/04 11:37:22;;;;;;;2.80;2.60;;;21.40;35.70;;;;;;5151212;27;20491;-78
2021/05/04 11:39:59;;;;;;;3.63;2.17;;;22.50;34.70;;;;;;5153137;27;20055;-79
2021/05/04 11:42:30;;;;;;;2.10;1.90;;;23.90;33.20;;;;;;5155648;27;20043;-78
2021/05/04 11:45:13;;;;;;;1.90;1.60;;;23.70;30.70;;;;;;5152702;27;20035;-78
2021/05/04 11:47:45;;;;;;;2.67;1.80;;;23.00;30.80;;;;;;5154000;27;20525;-76
2021/05/04 11:50:16;;;;;;;3.00;1.55;;;23.10;30.60;;;;;;5152687;27;20014;-76
2021/05/04 11:52:45;;;;;;;2.60;2.40;;;23.20;30.50;;;;;;5139911;27;20095;-78
2021/05/04 11:55:19;;;;;;;2.50;2.30;;;23.60;31.10;;;;;;5139037;27;20358;-76
2021/05/04 11:57:47;;;;;;;2.92;2.50;;;24.30;30.50;;;;;;5146862;27;20062;-77
2021/05/04 12:00:20;;;;;;;3.50;2.38;;;25.10;30.60;;;;;;5137068;27;20437;-77
2021/05/04 12:02:46;;;;;;;2.47;2.28;;;24.80;29.90;;;;;;5148741;27;20159;-76
2021/05/04 12:05:16;;;;;;;2.83;2.28;;;23.90;30.20;;;;;;5144128;27;20038;-76
2021/05/04 12:07:45;;;;;;;2.47;2.28;;;23.00;30.60;;;;;;5150861;27;20254;-77
2021/05/04 12:10:14;;;;;;;4.47;2.65;;;22.10;31.50;;;;;;5146867;27;20022;-74
2021/05/04 12:12:44;;;;;;;3.25;2.33;;;21.10;32.70;;;;;;5147869;27;20029;-75
2021/05/04 12:15:13;;;;;;;3.00;2.53;;;20.20;34.10;;;;;;5144865;27;20035;-75
2021/05/04 12:17:39;;;;;;;4.03;2.63;;;19.80;35.60;;;;;;5143781;27;20464;-76
2021/05/04 12:20:12;;;;;;;4.32;2.63;;;19.90;36.30;;;;;;5142375;27;20027;-76
2021/05/04 12:22:58;;;;;;;4.40;2.53;;;20.30;36.40;;;;;;5141799;27;20019;-76
2021/05/04 12:25:52;;;;;;;4.03;2.90;;;21.30;36.40;;;;;;5141814;27;20035;-78
2021/05/04 12:28:21;;;;;;;4.57;2.28;;;22.50;35.10;;;;;;5143934;27;20019;-77
2021/05/04 12:30:48;;;;;;;3.35;2.05;;;22.80;33.60;;;;;;5153598;27;20066;-78
2021/05/04 12:33:17;;;;;;;2.05;1.95;;;23.50;33.00;;;;;;5154505;27;20019;-77
2021/05/04 12:35:50;;;;;;;2.78;2.45;;;24.30;32.20;;;;;;5153061;27;20031;-78
2021/05/04 12:38:27;;;;;;;2.97;1.92;;;24.90;31.50;;;;;;5144902;27;20027;-77
2021/05/04 12:41:12;;;;;;;2.45;1.85;;;25.80;31.00;;;;;;5147165;27;20399;-76
2021/05/04 12:43:41;;;;;;;2.95;2.30;;;26.50;30.00;;;;;;5141071;27;20019;-77
2021/05/04 12:46:14;;;;;;;2.78;2.20;;;26.80;29.50;;;;;;5139229;27;20030;-76
2021/05/04 12:48:41;;;;;;;3.80;2.00;;;27.20;29.20;;;;;;5137709;27;20052;-76
2021/05/04 12:51:15;;;;;;;2.85;2.13;;;27.90;29.20;;;;;;5147053;27;20019;-76
2021/05/04 12:53:45;;;;;;;3.35;2.00;;;27.90;28.40;;;;;;5148017;27;20019;-78
2021/05/04 12:56:16;;;;;;;3.63;2.20;;;28.20;28.50;;;;;;5138231;27;20425;-77
2021/05/04 12:58:59;;;;;;;3.08;2.20;;;27.60;28.20;;;;;;5139190;27;20087;-77
2021/05/04 13:01:41;;;;;;;2.28;1.90;;;27.10;28.30;;;;;;5136852;27;20468;-76
2021/05/04 13:04:21;;;;;;;2.75;1.88;;;27.20;28.40;;;;;;5147030;27;20443;-75
2021/05/04 13:07:08;;;;;;;2.28;1.75;;;27.90;28.50;;;;;;5148619;27;20476;-76
2021/05/04 13:09:46;;;;;;;2.50;1.85;;;28.10;27.20;;;;;;5150705;27;20019;-77
2021/05/04 13:20:48;;;;;;;2.80;1.80;;;27.20;26.70;;;;;;5148195;27;20081;-76